Time;durP1;ratioP1;P1;durP2;ratioP2;P2;SDS_P1;SDS_P2;PMS_P1;PMS_P2;Temp;Humidity;BMP_temperature;BMP_pressure;BME280_temperature;BME280_humidity;BME280_pressure;Samples;Min_cycle;Max_cycle;Signal;HPM_P1;HPM_P2
2023/04/21 00:07:54;;;;;;;3.30;2.63;;;;;;;20.09;47.63;101391.19;20693463;28;20527;-68
2023/04/21 00:17:57;;;;;;;4.60;2.90;;;;;;;20.08;47.48;101385.91;20699878;28;20069;-68
2023/04/21 00:28:00;;;;;;;3.00;2.33;;;;;;;20.06;47.71;101359.03;20682867;28;20117;-68
2023/04/21 00:38:01;;;;;;;3.17;2.33;;;;;;;20.05;47.72;101349.22;20669717;28;20053;-68
2023/04/21 00:48:03;;;;;;;3.60;3.08;;;;;;;20.05;47.56;101330.31;20668828;28;20050;-68
2023/04/21 00:58:06;;;;;;;2.60;1.95;;;;;;;20.03;47.66;101316.09;20659487;28;20043;-68
2023/04/21 01:08:08;;;;;;;3.10;2.63;;;;;;;20.03;47.60;101316.09;20680471;28;20047;-68
2023/04/21 01:18:10;;;;;;;2.95;2.17;;;;;;;20.00;47.27;101313.66;20661075;28;20063;-68
2023/04/21 01:28:13;;;;;;;3.03;2.73;;;;;;;19.99;47.46;101293.88;20652286;28;20046;-68
2023/04/21 01:38:17;;;;;;;2.83;2.60;;;;;;;19.98;47.43;101294.88;20665294;28;20066;-68
2023/04/21 01:48:20;;;;;;;;;;;;;;;19.99;47.43;101293.03;20664913;28;20050;-67
2023/04/21 01:58:22;;;;;;;3.40;2.30;;;;;;;20.00;47.55;101286.63;20642857;28;19922;-68
2023/04/21 02:08:24;;;;;;;2.60;2.40;;;;;;;20.02;47.37;101294.59;20651355;28;20047;-68
2023/04/21 02:18:28;;;;;;;2.92;2.63;;;;;;;20.03;47.33;101294.47;20663238;28;20541;-68
2023/04/21 02:28:30;;;;;;;3.42;2.90;;;;;;;20.03;47.59;101283.66;20667784;28;20046;-68
2023/04/21 02:38:33;;;;;;;3.63;2.72;;;;;;;20.03;47.19;101271.97;20657850;28;20046;-68
2023/04/21 02:48:35;;;;;;;3.10;2.65;;;;;;;20.02;47.19;101276.53;20707449;28;20129;-68
2023/04/21 02:58:37;;;;;;;3.13;2.50;;;;;;;20.03;46.96;101283.66;20692502;28;20084;-68
2023/04/21 03:08:40;;;;;;;4.97;3.03;;;;;;;20.03;47.27;101278.25;20710167;28;20173;-68
2023/04/21 03:18:41;;;;;;;3.63;2.60;;;;;;;19.97;46.96;101285.06;20693639;28;20058;-67
2023/04/21 03:28:45;;;;;;;2.05;1.85;;;;;;;19.95;46.99;101280.81;20686311;28;20515;-68
2023/04/21 03:38:47;;;;;;;2.75;2.50;;;;;;;19.93;46.72;101272.81;20726575;28;20499;-68
2023/04/21 03:48:49;;;;;;;3.22;2.50;;;;;;;19.91;46.74;101280.22;20701881;28;20121;-68
2023/04/21 03:58:51;;;;;;;2.88;2.50;;;;;;;19.90;46.92;101274.94;20713470;28;20129;-68
2023/04/21 04:08:53;;;;;;;3.17;2.50;;;;;;;19.87;46.85;101273.34;20710271;28;20046;-68
2023/04/21 04:18:55;;;;;;;3.00;2.22;;;;;;;19.86;46.81;101277.88;20702629;28;20045;-68
2023/04/21 04:28:59;;;;;;;2.30;2.10;;;;;;;19.84;46.69;101287.97;20681886;28;20056;-68
2023/04/21 04:39:01;;;;;;;3.23;2.93;;;;;;;19.84;46.76;101306.91;20717556;28;20050;-68
2023/04/21 04:49:03;;;;;;;3.10;2.67;;;;;;;19.84;46.82;101304.19;20724139;28;20073;-68
2023/04/21 04:59:05;;;;;;;3.88;1.95;;;;;;;19.83;46.53;101304.34;20684999;28;20056;-68
2023/04/21 05:09:09;;;;;;;3.70;2.70;;;;;;;19.82;46.76;101319.69;20645168;28;20046;-68
2023/04/21 05:19:10;;;;;;;3.75;2.70;;;;;;;19.83;46.75;101329.50;20668651;28;20153;-69
2023/04/21 05:29:12;;;;;;;8.10;2.83;;;;;;;19.84;46.64;101316.88;20687524;28;20069;-69
2023/04/21 05:39:16;;;;;;;2.60;2.35;;;;;;;19.82;46.92;101319.69;20726793;28;20054;-69
2023/04/21 05:49:18;;;;;;;3.27;2.10;;;;;;;19.83;47.04;101331.38;20690057;28;20084;-69
2023/04/21 05:59:20;;;;;;;3.33;2.50;;;;;;;19.85;46.99;101335.63;20710653;28;20101;-69
2023/04/21 06:09:21;;;;;;;6.18;2.50;;;;;;;19.90;47.18;101323.56;20733162;28;20050;-69
2023/04/21 06:19:24;;;;;;;3.80;2.80;;;;;;;19.95;47.38;101321.34;20705753;28;20054;-69
2023/04/21 06:29:26;;;;;;;3.47;2.35;;;;;;;20.03;47.27;101309.81;20710444;28;20046;-69
2023/04/21 06:39:28;;;;;;;3.42;2.70;;;;;;;20.08;47.34;101308.41;20698405;28;20526;-69
2023/04/21 06:49:29;;;;;;;3.53;2.65;;;;;;;20.13;47.50;101295.31;20665758;28;20054;-69
2023/04/21 06:59:33;;;;;;;3.60;2.83;;;;;;;20.19;47.60;101298.44;20668725;28;20050;-71
2023/04/21 07:09:34;;;;;;;2.20;1.90;;;;;;;20.27;48.24;101285.94;20681916;28;20054;-70
2023/04/21 07:19:37;;;;;;;2.90;2.17;;;;;;;20.35;49.10;101282.53;20651293;28;20583;-70
2023/04/21 07:29:38;;;;;;;2.55;2.25;;;;;;;20.50;49.26;101284.78;20669321;28;20051;-71
2023/04/21 07:39:40;;;;;;;3.38;2.10;;;;;;;20.57;49.52;101278.66;20631108;28;20883;-71
2023/04/21 07:49:42;;;;;;;5.75;2.22;;;;;;;20.68;51.52;101274.91;20647671;28;20050;-68
2023/04/21 07:59:44;;;;;;;5.80;2.85;;;;;;;20.73;50.68;101264.50;20653109;28;20491;-67
2023/04/21 08:09:46;;;;;;;5.18;2.80;;;;;;;20.81;50.22;101260.25;20665535;28;20054;-67
2023/04/21 08:19:48;;;;;;;4.78;3.35;;;;;;;20.86;49.71;101257.97;20702779;28;20145;-67
2023/04/21 08:29:50;;;;;;;5.97;2.75;;;;;;;20.90;49.48;101259.38;20689321;28;20097;-67
2023/04/21 08:39:52;;;;;;;4.07;2.50;;;;;;;20.93;49.21;101234.72;20692965;28;20112;-66
2023/04/21 08:49:55;;;;;;;4.00;2.70;;;;;;;20.95;49.02;101240.84;20666179;28;20117;-66
2023/04/21 08:59:57;;;;;;;4.90;2.63;;;;;;;20.90;49.11;101244.97;20659928;28;20054;-66
2023/04/21 09:09:59;;;;;;;6.20;3.10;;;;;;;20.88;48.91;101222.63;20680594;28;20054;-66
2023/04/21 09:20:14;;;;;;;5.78;2.92;;;;;;;20.99;48.77;101234.13;20683514;28;20057;-66
2023/04/21 09:30:19;;;;;;;5.05;3.45;;;;;;;21.03;48.75;101226.56;20670401;28;20058;-66
2023/04/21 09:40:21;;;;;;;6.53;2.72;;;;;;;21.06;48.85;101225.41;20674789;28;20050;-66
2023/04/21 09:50:23;;;;;;;4.00;2.88;;;;;;;21.08;48.66;101215.28;20679842;28;20042;-66
2023/04/21 10:00:45;;;;;;;5.13;2.92;;;;;;;21.06;48.74;101209.16;20673734;28;20148;-67
2023/04/21 10:10:48;;;;;;;3.47;2.92;;;;;;;21.01;48.60;101199.63;20676590;28;20046;-67
2023/04/21 10:20:50;;;;;;;5.38;2.70;;;;;;;21.09;48.70;101189.91;20671742;28;20058;-67
2023/04/21 10:31:29;;;;;;;4.85;2.80;;;;;;;21.11;48.53;101174.34;20682421;28;20104;-67
2023/04/21 10:41:33;;;;;;;5.20;2.70;;;;;;;21.17;48.58;101151.25;20667390;28;20491;-67
2023/04/21 10:51:56;;;;;;;4.28;3.10;;;;;;;21.22;48.52;101140.81;20668477;28;20479;-67
2023/04/21 11:01:58;;;;;;;3.00;2.47;;;;;;;21.27;48.29;101124.97;20659329;28;20058;-67
2023/04/21 11:12:06;;;;;;;3.75;2.65;;;;;;;21.35;48.18;101118.78;20671180;28;20060;-67
2023/04/21 11:22:08;;;;;;;3.25;2.42;;;;;;;21.35;48.38;101107.97;20675177;28;20054;-66
2023/04/21 11:32:10;;;;;;;4.00;2.72;;;;;;;21.29;48.30;101080.50;20655740;28;20126;-66
2023/04/21 11:42:20;;;;;;;3.58;2.85;;;;;;;21.32;48.30;101057.66;20660912;28;20046;-66
2023/04/21 11:52:23;;;;;;;3.50;3.05;;;;;;;21.33;47.97;101037.69;20671587;28;20390;-66
2023/04/21 12:02:30;;;;;;;3.90;2.97;;;;;;;21.28;47.86;101040.88;20681830;28;20058;-66
2023/04/21 12:12:36;;;;;;;3.78;2.30;;;;;;;21.23;47.79;101026.97;20690452;28;20108;-66
2023/04/21 12:22:38;;;;;;;4.78;2.70;;;;;;;21.25;47.23;101030.38;20694331;28;20046;-66
2023/04/21 12:32:40;;;;;;;3.38;2.50;;;;;;;21.22;47.27;101019.84;20687450;28;20465;-66
2023/04/21 12:42:42;;;;;;;3.83;2.47;;;;;;;21.20;46.87;101005.59;20676547;28;20067;-66
2023/04/21 12:52:44;;;;;;;3.17;2.33;;;;;;;21.21;46.70;100998.34;20685003;28;20049;-66
2023/04/21 13:02:46;;;;;;;3.67;2.45;;;;;;;21.23;46.78;100988.19;20646731;28;20065;-65
2023/04/21 13:12:48;;;;;;;5.03;2.33;;;;;;;21.24;46.63;100979.94;20634733;28;20085;-66
2023/04/21 13:22:50;;;;;;;5.15;2.10;;;;;;;21.28;46.55;100972.31;20670631;28;20772;-65
2023/04/21 13:32:51;;;;;;;5.75;2.35;;;;;;;21.28;46.29;100954.25;20654513;28;20078;-65
2023/04/21 13:42:53;;;;;;;2.45;1.70;;;;;;;21.26;46.04;100948.13;20682173;28;20053;-65
2023/04/21 13:52:55;;;;;;;3.53;2.08;;;;;;;21.22;45.77;100916.09;20658635;28;20053;-65
2023/04/21 14:02:57;;;;;;;3.78;2.50;;;;;;;21.21;45.62;100895.44;20670384;28;20069;-65
2023/04/21 14:12:59;;;;;;;2.38;1.77;;;;;;;21.21;45.51;100890.91;20630582;28;20046;-65
2023/04/21 14:23:01;;;;;;;6.13;1.95;;;;;;;21.21;45.35;100871.94;20642293;28;20061;-66
2023/04/21 14:33:03;;;;;;;3.38;1.70;;;;;;;21.12;45.29;100835.84;20644671;28;20056;-66
2023/04/21 14:43:05;;;;;;;4.28;1.85;;;;;;;21.25;44.94;100853.50;20645183;28;20450;-67
2023/04/21 14:53:07;;;;;;;5.35;2.05;;;;;;;21.24;44.61;100828.31;20661570;28;20042;-66
2023/04/21 15:03:11;;;;;;;3.17;1.80;;;;;;;21.24;44.40;100812.06;20648258;28;20109;-66
2023/04/21 15:13:13;;;;;;;2.30;1.55;;;;;;;21.23;44.32;100786.00;20660463;28;20058;-66
2023/04/21 15:23:15;;;;;;;4.55;1.80;;;;;;;21.20;44.19;100789.00;20681883;28;20096;-64
2023/04/21 15:33:17;;;;;;;4.82;1.77;;;;;;;21.20;43.99;100761.94;20670715;28;20050;-64
2023/04/21 15:43:19;;;;;;;2.67;1.80;;;;;;;21.19;44.01;100746.69;20658226;28;20054;-66
2023/04/21 15:53:20;;;;;;;4.03;1.70;;;;;;;21.19;44.13;100730.47;20647363;28;20061;-69
2023/04/21 16:03:22;;;;;;;3.92;1.80;;;;;;;21.22;44.21;100711.22;20653165;28;20046;-66
2023/04/21 16:13:24;;;;;;;3.83;2.30;;;;;;;21.22;45.00;100710.34;20649152;28;20533;-67
2023/04/21 16:23:26;;;;;;;2.25;1.80;;;;;;;21.28;46.11;100705.13;20645477;28;20107;-67
2023/04/21 16:33:28;;;;;;;3.47;1.63;;;;;;;21.35;48.65;100693.66;20670821;28;20116;-67
2023/04/21 16:43:30;;;;;;;3.70;2.30;;;;;;;21.41;49.45;100693.00;20642286;28;20432;-66
2023/04/21 16:53:32;;;;;;;3.63;1.70;;;;;;;21.43;49.26;100686.41;20662043;28;20058;-66
2023/04/21 17:03:34;;;;;;;3.25;1.63;;;;;;;21.41;48.70;100684.88;20637538;28;20129;-66
2023/04/21 17:13:38;;;;;;;1.55;1.20;;;;;;;21.36;48.12;100679.09;20644931;28;20387;-66
2023/04/21 17:23:40;;;;;;;1.75;1.40;;;;;;;21.30;47.88;100673.34;20655162;28;20518;-68
2023/04/21 17:33:43;;;;;;;2.65;1.42;;;;;;;21.27;47.83;100665.53;20698136;28;20487;-67
2023/04/21 17:54:30;;;;;;;4.13;2.00;;;;;;;21.19;47.50;100662.78;20568788;24;20137;-58
2023/04/21 18:04:33;;;;;;;3.17;1.80;;;;;;;21.11;47.68;100649.22;19874533;29;20116;-59
2023/04/21 18:14:35;;;;;;;2.97;2.10;;;;;;;21.12;47.78;100653.63;19866781;29;20047;-59
2023/04/21 18:24:37;;;;;;;4.10;1.85;;;;;;;21.08;46.95;100642.31;19878454;29;20141;-58
2023/04/21 18:34:40;;;;;;;4.45;2.70;;;;;;;21.00;47.02;100635.00;19888850;29;20527;-58
2023/04/21 18:44:42;;;;;;;4.25;2.45;;;;;;;20.98;47.25;100639.72;19881162;29;20063;-58
2023/04/21 18:54:43;;;;;;;4.15;2.50;;;;;;;20.99;47.17;100652.25;19876270;29;20066;-58
2023/04/21 19:04:45;;;;;;;2.90;1.95;;;;;;;20.94;46.86;100642.91;19872439;29;20583;-58
2023/04/21 19:14:47;;;;;;;4.97;2.50;;;;;;;20.89;46.76;100646.13;19845277;29;20065;-58
2023/04/21 19:24:50;;;;;;;5.38;2.35;;;;;;;20.84;46.70;100646.59;19857085;29;20407;-58
2023/04/21 19:34:52;;;;;;;3.38;2.28;;;;;;;20.81;46.32;100659.59;19849109;29;20048;-58
2023/04/21 19:44:53;;;;;;;7.10;3.03;;;;;;;20.77;46.18;100713.16;19841289;29;20119;-58
2023/04/21 19:54:55;;;;;;;3.88;2.63;;;;;;;20.78;47.17;100697.78;19849867;29;20466;-58
2023/04/21 20:04:57;;;;;;;4.55;2.30;;;;;;;20.78;48.07;100731.06;19844818;29;20059;-58
2023/04/21 20:15:00;;;;;;;4.30;2.33;;;;;;;20.83;51.61;100717.09;19840757;29;20582;-59
2023/04/21 20:25:02;;;;;;;4.35;2.70;;;;;;;20.82;52.62;100674.84;19869267;29;20512;-58
2023/04/21 20:35:06;;;;;;;3.47;2.35;;;;;;;20.81;52.71;100654.19;19891224;29;20592;-58
2023/04/21 20:45:08;;;;;;;4.27;2.43;;;;;;;20.78;53.36;100663.44;19882869;29;20063;-58
2023/04/21 20:55:10;;;;;;;3.38;2.03;;;;;;;20.75;53.32;100631.31;19885045;29;20134;-58
2023/04/21 21:05:12;;;;;;;2.00;1.67;;;;;;;20.72;53.33;100618.94;19895673;29;20058;-58
2023/04/21 21:15:13;;;;;;;2.67;1.70;;;;;;;20.70;53.36;100626.38;19891320;29;20082;-58
2023/04/21 21:25:15;;;;;;;2.67;2.42;;;;;;;20.68;53.24;100639.19;19875470;29;20051;-58
2023/04/21 21:35:17;;;;;;;2.63;1.73;;;;;;;20.69;53.17;100646.31;19888849;29;20414;-58
2023/04/21 21:45:19;;;;;;;2.10;1.67;;;;;;;20.69;53.21;100635.50;19876508;29;21896;-58
2023/04/21 21:55:21;;;;;;;2.05;1.48;;;;;;;20.69;53.28;100602.19;19883505;29;20063;-58
2023/04/21 22:05:23;;;;;;;1.95;1.50;;;;;;;20.68;53.10;100600.50;19877981;29;20461;-59
2023/04/21 22:15:25;;;;;;;1.45;1.35;;;;;;;20.65;52.94;100619.75;19872924;29;20069;-58
2023/04/21 22:25:26;;;;;;;1.73;1.45;;;;;;;20.65;52.72;100617.88;19878047;29;20063;-58
2023/04/21 22:35:29;;;;;;;1.42;1.30;;;;;;;20.63;52.61;100598.28;19873147;29;20054;-58
2023/04/21 22:45:30;;;;;;;2.45;1.60;;;;;;;20.62;52.75;100758.84;19882366;29;20057;-58
2023/04/21 22:55:32;;;;;;;1.70;1.40;;;;;;;20.62;53.02;100758.03;19879192;29;20059;-58
2023/04/21 23:05:34;;;;;;;2.33;1.77;;;;;;;20.60;53.21;100750.06;19881251;29;20432;-58
2023/04/21 23:15:35;;;;;;;2.00;1.70;;;;;;;20.55;53.85;100665.84;19877506;29;20047;-59
2023/04/21 23:25:37;;;;;;;1.63;1.40;;;;;;;20.48;53.84;100657.50;19871630;29;20070;-58
2023/04/21 23:35:39;;;;;;;1.90;1.38;;;;;;;20.49;53.98;100651.09;19874753;29;20086;-58
2023/04/21 23:45:41;;;;;;;1.70;1.50;;;;;;;20.46;54.27;100650.59;19889955;29;20059;-58
2023/04/21 23:55:44;;;;;;;2.17;1.65;;;;;;;20.42;54.37;100633.81;19882153;29;20142;-58
